Terminal Aerodrome Forecast
Issued by NWS Wilmington, OH

Current Version | Previous Version | Text Only | Print | Product List | Glossary Off
Versions: 1 2 3 4 5 6 7 8 9 10 11 12 13 14 15 16

407
FTUS41 KILN 241120
TAFCMH
TAF
KCMH 241120Z 2412/2512 23003KT P6SM SKC
     FM241600 24006KT P6SM FEW250
     FM250900 00000KT P6SM SCT040=

USA.gov is the U.S. government's official web portal to all federal, state and local government web resources and services.